sensor_id;sensor_type;location;lat;lon;timestamp;temperature;humidity
5196;DHT22;2617;51.006;12.436;2024-03-29T00:00:54;6.50;99.90
5196;DHT22;2617;51.006;12.436;2024-03-29T00:05:56;6.40;99.90
5196;DHT22;2617;51.006;12.436;2024-03-29T00:10:58;6.50;99.90
5196;DHT22;2617;51.006;12.436;2024-03-29T00:16:01;6.40;99.90
5196;DHT22;2617;51.006;12.436;2024-03-29T00:21:04;6.40;99.90
5196;DHT22;2617;51.006;12.436;2024-03-29T00:26:06;6.40;99.90
5196;DHT22;2617;51.006;12.436;2024-03-29T00:31:08;6.40;99.90
5196;DHT22;2617;51.006;12.436;2024-03-29T00:36:11;6.40;99.90
5196;DHT22;2617;51.006;12.436;2024-03-29T00:41:14;6.40;99.90
5196;DHT22;2617;51.006;12.436;2024-03-29T00:46:17;6.40;99.90
5196;DHT22;2617;51.006;12.436;2024-03-29T00:51:19;6.30;99.90
5196;DHT22;2617;51.006;12.436;2024-03-29T00:56:22;6.20;99.90
5196;DHT22;2617;51.006;12.436;2024-03-29T01:01:24;6.20;99.90
5196;DHT22;2617;51.006;12.436;2024-03-29T01:06:26;6.10;99.90
5196;DHT22;2617;51.006;12.436;2024-03-29T01:11:30;6.10;99.90
5196;DHT22;2617;51.006;12.436;2024-03-29T01:16:32;6.00;99.90
5196;DHT22;2617;51.006;12.436;2024-03-29T01:21:34;6.00;99.90
5196;DHT22;2617;51.006;12.436;2024-03-29T01:26:37;6.00;99.90
5196;DHT22;2617;51.006;12.436;2024-03-29T01:31:41;5.90;99.90
5196;DHT22;2617;51.006;12.436;2024-03-29T01:36:44;5.80;99.90
5196;DHT22;2617;51.006;12.436;2024-03-29T01:41:47;5.80;99.90
5196;DHT22;2617;51.006;12.436;2024-03-29T01:46:50;5.70;99.90
5196;DHT22;2617;51.006;12.436;2024-03-29T01:51:53;5.60;99.90
5196;DHT22;2617;51.006;12.436;2024-03-29T01:56:55;5.70;99.90
5196;DHT22;2617;51.006;12.436;2024-03-29T02:01:57;5.60;99.90
5196;DHT22;2617;51.006;12.436;2024-03-29T02:07:00;5.60;99.90
5196;DHT22;2617;51.006;12.436;2024-03-29T02:12:02;5.60;99.90
5196;DHT22;2617;51.006;12.436;2024-03-29T02:17:05;5.60;99.90
5196;DHT22;2617;51.006;12.436;2024-03-29T02:22:07;5.70;99.90
5196;DHT22;2617;51.006;12.436;2024-03-29T02:27:10;5.80;99.90
5196;DHT22;2617;51.006;12.436;2024-03-29T02:32:13;5.90;99.90
5196;DHT22;2617;51.006;12.436;2024-03-29T02:37:15;5.90;99.90
5196;DHT22;2617;51.006;12.436;2024-03-29T02:42:19;6.00;99.90
5196;DHT22;2617;51.006;12.436;2024-03-29T02:47:22;6.00;99.90
5196;DHT22;2617;51.006;12.436;2024-03-29T02:52:24;6.10;99.90
5196;DHT22;2617;51.006;12.436;2024-03-29T02:57:26;6.20;99.90
5196;DHT22;2617;51.006;12.436;2024-03-29T03:02:29;6.30;99.90
5196;DHT22;2617;51.006;12.436;2024-03-29T03:07:31;6.40;99.90
5196;DHT22;2617;51.006;12.436;2024-03-29T03:12:39;6.50;99.90
5196;DHT22;2617;51.006;12.436;2024-03-29T03:17:41;6.60;99.90
5196;DHT22;2617;51.006;12.436;2024-03-29T03:22:44;6.60;99.90
5196;DHT22;2617;51.006;12.436;2024-03-29T03:27:47;6.60;99.90
5196;DHT22;2617;51.006;12.436;2024-03-29T03:32:49;6.50;99.90
5196;DHT22;2617;51.006;12.436;2024-03-29T03:37:52;6.50;99.90
5196;DHT22;2617;51.006;12.436;2024-03-29T03:42:54;6.60;99.90
5196;DHT22;2617;51.006;12.436;2024-03-29T03:47:57;6.70;99.90
5196;DHT22;2617;51.006;12.436;2024-03-29T03:53:00;6.70;99.90
5196;DHT22;2617;51.006;12.436;2024-03-29T03:58:02;6.70;99.90
5196;DHT22;2617;51.006;12.436;2024-03-29T04:03:05;6.70;99.90
5196;DHT22;2617;51.006;12.436;2024-03-29T04:08:07;6.70;99.90
5196;DHT22;2617;51.006;12.436;2024-03-29T04:13:10;6.70;99.90
5196;DHT22;2617;51.006;12.436;2024-03-29T04:18:12;6.80;99.90
5196;DHT22;2617;51.006;12.436;2024-03-29T04:23:14;6.80;99.90
5196;DHT22;2617;51.006;12.436;2024-03-29T04:28:17;6.90;99.90
5196;DHT22;2617;51.006;12.436;2024-03-29T04:33:20;6.90;99.90
5196;DHT22;2617;51.006;12.436;2024-03-29T04:38:22;7.10;99.90
5196;DHT22;2617;51.006;12.436;2024-03-29T04:43:28;7.20;99.90
5196;DHT22;2617;51.006;12.436;2024-03-29T04:48:31;7.30;99.90
5196;DHT22;2617;51.006;12.436;2024-03-29T04:53:35;7.30;99.90
5196;DHT22;2617;51.006;12.436;2024-03-29T04:58:39;7.50;99.90
5196;DHT22;2617;51.006;12.436;2024-03-29T05:03:42;7.50;99.90
5196;DHT22;2617;51.006;12.436;2024-03-29T05:08:45;7.50;99.90
5196;DHT22;2617;51.006;12.436;2024-03-29T05:13:47;7.50;99.90
5196;DHT22;2617;51.006;12.436;2024-03-29T05:18:51;7.60;99.90
5196;DHT22;2617;51.006;12.436;2024-03-29T05:23:54;7.60;99.90
5196;DHT22;2617;51.006;12.436;2024-03-29T05:28:56;7.70;99.90
5196;DHT22;2617;51.006;12.436;2024-03-29T05:33:59;7.80;99.90
5196;DHT22;2617;51.006;12.436;2024-03-29T05:39:02;7.80;99.90
5196;DHT22;2617;51.006;12.436;2024-03-29T05:44:04;7.80;99.90
5196;DHT22;2617;51.006;12.436;2024-03-29T05:49:08;7.80;99.90
5196;DHT22;2617;51.006;12.436;2024-03-29T05:54:10;7.80;99.90
5196;DHT22;2617;51.006;12.436;2024-03-29T05:59:12;7.80;99.90
5196;DHT22;2617;51.006;12.436;2024-03-29T06:04:15;7.90;99.90
5196;DHT22;2617;51.006;12.436;2024-03-29T06:09:17;8.00;99.90
5196;DHT22;2617;51.006;12.436;2024-03-29T06:14:21;8.10;99.90
5196;DHT22;2617;51.006;12.436;2024-03-29T06:19:29;8.10;99.90
5196;DHT22;2617;51.006;12.436;2024-03-29T06:24:32;8.20;99.90
5196;DHT22;2617;51.006;12.436;2024-03-29T06:29:35;8.20;99.90
5196;DHT22;2617;51.006;12.436;2024-03-29T06:34:38;8.30;99.50
5196;DHT22;2617;51.006;12.436;2024-03-29T06:39:40;8.50;98.80
5196;DHT22;2617;51.006;12.436;2024-03-29T06:44:43;8.60;98.60
5196;DHT22;2617;51.006;12.436;2024-03-29T06:49:45;8.80;97.70
5196;DHT22;2617;51.006;12.436;2024-03-29T06:54:47;8.90;97.00
5196;DHT22;2617;51.006;12.436;2024-03-29T06:59:50;9.00;96.90
5196;DHT22;2617;51.006;12.436;2024-03-29T07:04:52;9.00;97.10
5196;DHT22;2617;51.006;12.436;2024-03-29T07:09:56;9.10;97.10
5196;DHT22;2617;51.006;12.436;2024-03-29T07:14:58;9.10;97.10
5196;DHT22;2617;51.006;12.436;2024-03-29T07:20:01;9.20;96.90
5196;DHT22;2617;51.006;12.436;2024-03-29T07:25:04;9.30;96.60
5196;DHT22;2617;51.006;12.436;2024-03-29T07:30:07;9.30;96.50
5196;DHT22;2617;51.006;12.436;2024-03-29T07:35:10;9.40;95.90
5196;DHT22;2617;51.006;12.436;2024-03-29T07:40:14;9.50;95.10
5196;DHT22;2617;51.006;12.436;2024-03-29T07:45:16;9.60;95.10
5196;DHT22;2617;51.006;12.436;2024-03-29T07:50:21;9.70;94.10
5196;DHT22;2617;51.006;12.436;2024-03-29T07:55:24;9.80;93.50
5196;DHT22;2617;51.006;12.436;2024-03-29T08:00:27;9.80;93.50
5196;DHT22;2617;51.006;12.436;2024-03-29T08:05:29;9.90;93.00
5196;DHT22;2617;51.006;12.436;2024-03-29T08:10:32;10.10;92.60
5196;DHT22;2617;51.006;12.436;2024-03-29T08:15:34;10.20;92.30
5196;DHT22;2617;51.006;12.436;2024-03-29T08:20:37;10.30;92.20
5196;DHT22;2617;51.006;12.436;2024-03-29T08:25:39;10.30;92.50
5196;DHT22;2617;51.006;12.436;2024-03-29T08:30:42;10.40;92.50
5196;DHT22;2617;51.006;12.436;2024-03-29T08:35:44;10.50;92.60
5196;DHT22;2617;51.006;12.436;2024-03-29T08:40:47;10.50;92.40
5196;DHT22;2617;51.006;12.436;2024-03-29T08:45:50;10.50;92.40
5196;DHT22;2617;51.006;12.436;2024-03-29T08:50:53;10.70;91.60
5196;DHT22;2617;51.006;12.436;2024-03-29T08:55:55;10.80;91.40
5196;DHT22;2617;51.006;12.436;2024-03-29T09:00:58;10.90;91.20
5196;DHT22;2617;51.006;12.436;2024-03-29T09:06:00;11.10;91.10
5196;DHT22;2617;51.006;12.436;2024-03-29T09:11:03;11.40;91.00
5196;DHT22;2617;51.006;12.436;2024-03-29T09:16:05;11.70;90.30
5196;DHT22;2617;51.006;12.436;2024-03-29T09:21:08;12.00;90.10
5196;DHT22;2617;51.006;12.436;2024-03-29T09:26:11;12.30;90.00
5196;DHT22;2617;51.006;12.436;2024-03-29T09:31:13;12.60;90.50
5196;DHT22;2617;51.006;12.436;2024-03-29T09:36:16;12.70;90.60
5196;DHT22;2617;51.006;12.436;2024-03-29T09:41:19;12.90;89.70
5196;DHT22;2617;51.006;12.436;2024-03-29T09:46:22;12.90;88.00
5196;DHT22;2617;51.006;12.436;2024-03-29T09:51:26;13.00;88.40
5196;DHT22;2617;51.006;12.436;2024-03-29T09:56:28;12.90;88.00
5196;DHT22;2617;51.006;12.436;2024-03-29T10:01:30;13.10;86.90
5196;DHT22;2617;51.006;12.436;2024-03-29T10:06:34;13.40;85.20
5196;DHT22;2617;51.006;12.436;2024-03-29T10:11:35;13.70;83.90
5196;DHT22;2617;51.006;12.436;2024-03-29T10:16:38;14.00;83.10
5196;DHT22;2617;51.006;12.436;2024-03-29T10:21:40;14.30;82.90
5196;DHT22;2617;51.006;12.436;2024-03-29T10:26:42;14.40;82.00
5196;DHT22;2617;51.006;12.436;2024-03-29T10:31:45;14.40;82.70
5196;DHT22;2617;51.006;12.436;2024-03-29T10:36:48;14.40;80.80
5196;DHT22;2617;51.006;12.436;2024-03-29T10:41:51;14.40;80.80
5196;DHT22;2617;51.006;12.436;2024-03-29T10:46:55;14.30;77.40
5196;DHT22;2617;51.006;12.436;2024-03-29T10:51:56;14.30;77.90
5196;DHT22;2617;51.006;12.436;2024-03-29T10:57:00;14.20;78.10
5196;DHT22;2617;51.006;12.436;2024-03-29T11:02:07;14.20;79.90
5196;DHT22;2617;51.006;12.436;2024-03-29T11:07:06;14.10;79.80
5196;DHT22;2617;51.006;12.436;2024-03-29T11:12:08;14.10;79.70
5196;DHT22;2617;51.006;12.436;2024-03-29T11:17:11;14.10;76.70
5196;DHT22;2617;51.006;12.436;2024-03-29T11:22:13;14.20;75.60
5196;DHT22;2617;51.006;12.436;2024-03-29T11:27:17;14.30;72.00
5196;DHT22;2617;51.006;12.436;2024-03-29T11:37:36;14.20;77.30
5196;DHT22;2617;51.006;12.436;2024-03-29T11:42:43;14.00;81.10
5196;DHT22;2617;51.006;12.436;2024-03-29T11:47:48;13.70;82.50
5196;DHT22;2617;51.006;12.436;2024-03-29T11:52:52;13.20;91.70
5196;DHT22;2617;51.006;12.436;2024-03-29T11:57:54;13.20;91.70
5196;DHT22;2617;51.006;12.436;2024-03-29T12:02:57;12.80;93.80
5196;DHT22;2617;51.006;12.436;2024-03-29T12:07:59;12.70;99.40
5196;DHT22;2617;51.006;12.436;2024-03-29T12:13:02;12.40;99.90
5196;DHT22;2617;51.006;12.436;2024-03-29T12:18:04;12.00;99.90
5196;DHT22;2617;51.006;12.436;2024-03-29T12:23:08;11.70;99.90
5196;DHT22;2617;51.006;12.436;2024-03-29T12:28:10;11.60;99.90
5196;DHT22;2617;51.006;12.436;2024-03-29T12:33:15;11.40;99.90
5196;DHT22;2617;51.006;12.436;2024-03-29T12:38:17;11.40;99.90
5196;DHT22;2617;51.006;12.436;2024-03-29T12:43:20;11.40;99.90
5196;DHT22;2617;51.006;12.436;2024-03-29T12:48:23;11.70;99.90
5196;DHT22;2617;51.006;12.436;2024-03-29T12:53:26;11.70;99.90
5196;DHT22;2617;51.006;12.436;2024-03-29T12:58:28;12.10;99.90
5196;DHT22;2617;51.006;12.436;2024-03-29T13:03:31;12.70;99.90
5196;DHT22;2617;51.006;12.436;2024-03-29T13:08:33;13.10;99.90
5196;DHT22;2617;51.006;12.436;2024-03-29T13:13:35;13.50;99.90
5196;DHT22;2617;51.006;12.436;2024-03-29T13:18:38;14.00;99.90
5196;DHT22;2617;51.006;12.436;2024-03-29T13:23:41;14.30;99.90
5196;DHT22;2617;51.006;12.436;2024-03-29T13:28:43;14.30;99.90
5196;DHT22;2617;51.006;12.436;2024-03-29T13:33:47;14.40;99.90
5196;DHT22;2617;51.006;12.436;2024-03-29T13:38:49;14.50;99.90
5196;DHT22;2617;51.006;12.436;2024-03-29T13:43:52;14.70;99.90
5196;DHT22;2617;51.006;12.436;2024-03-29T13:48:55;15.10;99.90
5196;DHT22;2617;51.006;12.436;2024-03-29T13:53:58;15.60;99.90
5196;DHT22;2617;51.006;12.436;2024-03-29T13:59:00;16.20;99.90
5196;DHT22;2617;51.006;12.436;2024-03-29T14:04:03;16.60;98.50
5196;DHT22;2617;51.006;12.436;2024-03-29T14:09:07;15.80;99.10
5196;DHT22;2617;51.006;12.436;2024-03-29T14:14:10;15.80;99.10
5196;DHT22;2617;51.006;12.436;2024-03-29T14:19:12;15.50;99.60
5196;DHT22;2617;51.006;12.436;2024-03-29T14:24:14;15.30;99.90
5196;DHT22;2617;51.006;12.436;2024-03-29T14:29:18;15.20;99.90
5196;DHT22;2617;51.006;12.436;2024-03-29T14:34:20;15.10;99.90
5196;DHT22;2617;51.006;12.436;2024-03-29T14:39:22;15.00;99.90
5196;DHT22;2617;51.006;12.436;2024-03-29T14:44:26;15.00;99.90
5196;DHT22;2617;51.006;12.436;2024-03-29T14:49:29;15.00;99.90
5196;DHT22;2617;51.006;12.436;2024-03-29T14:54:32;15.00;99.90
5196;DHT22;2617;51.006;12.436;2024-03-29T14:59:34;15.10;99.90
5196;DHT22;2617;51.006;12.436;2024-03-29T15:04:37;15.20;99.90
5196;DHT22;2617;51.006;12.436;2024-03-29T15:09:39;15.40;99.90
5196;DHT22;2617;51.006;12.436;2024-03-29T15:14:41;15.50;99.90
5196;DHT22;2617;51.006;12.436;2024-03-29T15:19:47;15.70;99.90
5196;DHT22;2617;51.006;12.436;2024-03-29T15:24:49;15.90;99.90
5196;DHT22;2617;51.006;12.436;2024-03-29T15:29:53;16.10;99.90
5196;DHT22;2617;51.006;12.436;2024-03-29T15:34:55;16.30;99.90
5196;DHT22;2617;51.006;12.436;2024-03-29T15:39:57;16.40;99.90
5196;DHT22;2617;51.006;12.436;2024-03-29T15:45:00;16.50;99.90
5196;DHT22;2617;51.006;12.436;2024-03-29T15:50:05;16.60;99.90
5196;DHT22;2617;51.006;12.436;2024-03-29T15:55:09;16.50;99.90
5196;DHT22;2617;51.006;12.436;2024-03-29T16:00:13;16.40;99.90
5196;DHT22;2617;51.006;12.436;2024-03-29T16:05:17;16.20;99.90
5196;DHT22;2617;51.006;12.436;2024-03-29T16:10:19;16.20;99.90
5196;DHT22;2617;51.006;12.436;2024-03-29T16:15:21;16.00;99.90
5196;DHT22;2617;51.006;12.436;2024-03-29T16:20:24;15.70;99.90
5196;DHT22;2617;51.006;12.436;2024-03-29T16:25:27;15.50;99.90
5196;DHT22;2617;51.006;12.436;2024-03-29T16:30:30;15.30;99.90
5196;DHT22;2617;51.006;12.436;2024-03-29T16:35:32;15.20;99.90
5196;DHT22;2617;51.006;12.436;2024-03-29T16:40:35;14.90;99.90
5196;DHT22;2617;51.006;12.436;2024-03-29T16:45:39;14.90;99.90
5196;DHT22;2617;51.006;12.436;2024-03-29T16:50:44;14.90;99.90
5196;DHT22;2617;51.006;12.436;2024-03-29T16:55:47;14.80;99.90
5196;DHT22;2617;51.006;12.436;2024-03-29T17:00:50;14.70;99.90
5196;DHT22;2617;51.006;12.436;2024-03-29T17:05:52;14.60;99.90
5196;DHT22;2617;51.006;12.436;2024-03-29T17:10:54;14.50;99.90
5196;DHT22;2617;51.006;12.436;2024-03-29T17:15:57;14.30;99.90
5196;DHT22;2617;51.006;12.436;2024-03-29T17:21:00;14.20;99.90
5196;DHT22;2617;51.006;12.436;2024-03-29T17:26:02;14.00;99.90
5196;DHT22;2617;51.006;12.436;2024-03-29T17:31:05;13.90;99.90
5196;DHT22;2617;51.006;12.436;2024-03-29T17:36:07;13.80;99.90
5196;DHT22;2617;51.006;12.436;2024-03-29T17:41:10;13.70;99.90
5196;DHT22;2617;51.006;12.436;2024-03-29T17:46:13;13.60;99.90
5196;DHT22;2617;51.006;12.436;2024-03-29T17:51:16;13.40;99.90
5196;DHT22;2617;51.006;12.436;2024-03-29T17:56:18;13.30;99.90
5196;DHT22;2617;51.006;12.436;2024-03-29T18:01:21;13.20;99.90
5196;DHT22;2617;51.006;12.436;2024-03-29T18:06:23;13.10;99.90
5196;DHT22;2617;51.006;12.436;2024-03-29T18:11:25;13.00;99.90
5196;DHT22;2617;51.006;12.436;2024-03-29T18:16:28;12.90;99.90
5196;DHT22;2617;51.006;12.436;2024-03-29T18:21:30;12.80;99.90
5196;DHT22;2617;51.006;12.436;2024-03-29T18:26:33;12.70;99.90
5196;DHT22;2617;51.006;12.436;2024-03-29T18:31:36;12.60;99.90
5196;DHT22;2617;51.006;12.436;2024-03-29T18:36:38;12.50;99.90
5196;DHT22;2617;51.006;12.436;2024-03-29T18:41:41;12.40;99.90
5196;DHT22;2617;51.006;12.436;2024-03-29T18:46:43;12.30;99.90
5196;DHT22;2617;51.006;12.436;2024-03-29T18:51:48;12.20;99.90
5196;DHT22;2617;51.006;12.436;2024-03-29T18:56:49;12.10;99.90
5196;DHT22;2617;51.006;12.436;2024-03-29T19:01:54;11.90;99.90
5196;DHT22;2617;51.006;12.436;2024-03-29T19:06:56;11.90;99.90
5196;DHT22;2617;51.006;12.436;2024-03-29T19:11:58;11.80;99.90
5196;DHT22;2617;51.006;12.436;2024-03-29T19:17:01;11.70;99.90
5196;DHT22;2617;51.006;12.436;2024-03-29T19:22:04;11.70;99.90
5196;DHT22;2617;51.006;12.436;2024-03-29T19:27:06;11.70;99.90
5196;DHT22;2617;51.006;12.436;2024-03-29T19:32:09;11.70;99.90
5196;DHT22;2617;51.006;12.436;2024-03-29T19:37:11;11.80;99.90
5196;DHT22;2617;51.006;12.436;2024-03-29T19:42:14;11.80;99.90
5196;DHT22;2617;51.006;12.436;2024-03-29T19:47:16;11.80;99.90
5196;DHT22;2617;51.006;12.436;2024-03-29T19:52:19;11.80;99.90
5196;DHT22;2617;51.006;12.436;2024-03-29T19:57:21;11.70;99.90
5196;DHT22;2617;51.006;12.436;2024-03-29T20:02:23;11.60;99.90
5196;DHT22;2617;51.006;12.436;2024-03-29T20:07:26;11.40;99.90
5196;DHT22;2617;51.006;12.436;2024-03-29T20:12:29;11.20;99.90
5196;DHT22;2617;51.006;12.436;2024-03-29T20:17:31;11.00;99.90
5196;DHT22;2617;51.006;12.436;2024-03-29T20:22:34;10.80;99.90
5196;DHT22;2617;51.006;12.436;2024-03-29T20:27:36;10.80;99.90
5196;DHT22;2617;51.006;12.436;2024-03-29T20:32:39;10.70;99.90
5196;DHT22;2617;51.006;12.436;2024-03-29T20:37:41;10.70;99.90
5196;DHT22;2617;51.006;12.436;2024-03-29T20:42:44;10.60;99.90
5196;DHT22;2617;51.006;12.436;2024-03-29T20:47:47;10.50;99.90
5196;DHT22;2617;51.006;12.436;2024-03-29T20:52:52;10.40;99.90
5196;DHT22;2617;51.006;12.436;2024-03-29T20:57:54;10.30;99.90
5196;DHT22;2617;51.006;12.436;2024-03-29T21:02:56;10.20;99.90
5196;DHT22;2617;51.006;12.436;2024-03-29T21:08:04;10.10;99.90
5196;DHT22;2617;51.006;12.436;2024-03-29T21:13:09;10.00;99.90
5196;DHT22;2617;51.006;12.436;2024-03-29T21:18:13;9.80;99.90
5196;DHT22;2617;51.006;12.436;2024-03-29T21:23:15;9.80;99.90
5196;DHT22;2617;51.006;12.436;2024-03-29T21:28:17;9.70;99.90
5196;DHT22;2617;51.006;12.436;2024-03-29T21:33:20;9.60;99.90
5196;DHT22;2617;51.006;12.436;2024-03-29T21:38:22;9.60;99.90
5196;DHT22;2617;51.006;12.436;2024-03-29T21:43:25;9.50;99.90
5196;DHT22;2617;51.006;12.436;2024-03-29T21:48:28;9.40;99.90
5196;DHT22;2617;51.006;12.436;2024-03-29T21:53:31;9.40;99.90
5196;DHT22;2617;51.006;12.436;2024-03-29T21:58:33;9.40;99.90
5196;DHT22;2617;51.006;12.436;2024-03-29T22:03:36;9.30;99.90
5196;DHT22;2617;51.006;12.436;2024-03-29T22:08:39;9.30;99.90
5196;DHT22;2617;51.006;12.436;2024-03-29T22:13:41;9.30;99.90
5196;DHT22;2617;51.006;12.436;2024-03-29T22:18:44;9.20;99.90
5196;DHT22;2617;51.006;12.436;2024-03-29T22:23:47;9.20;99.90
5196;DHT22;2617;51.006;12.436;2024-03-29T22:28:49;9.10;99.90
5196;DHT22;2617;51.006;12.436;2024-03-29T22:33:51;9.10;99.90
5196;DHT22;2617;51.006;12.436;2024-03-29T22:38:55;9.00;99.90
5196;DHT22;2617;51.006;12.436;2024-03-29T22:43:57;8.90;99.90
5196;DHT22;2617;51.006;12.436;2024-03-29T22:49:01;8.80;99.90
5196;DHT22;2617;51.006;12.436;2024-03-29T22:54:03;8.70;99.90
5196;DHT22;2617;51.006;12.436;2024-03-29T22:59:06;8.60;99.90
5196;DHT22;2617;51.006;12.436;2024-03-29T23:04:08;8.60;99.90
5196;DHT22;2617;51.006;12.436;2024-03-29T23:09:10;8.60;99.90
5196;DHT22;2617;51.006;12.436;2024-03-29T23:14:13;8.60;99.90
5196;DHT22;2617;51.006;12.436;2024-03-29T23:19:15;8.50;99.90
5196;DHT22;2617;51.006;12.436;2024-03-29T23:24:18;8.40;99.90
5196;DHT22;2617;51.006;12.436;2024-03-29T23:29:21;8.30;99.90
5196;DHT22;2617;51.006;12.436;2024-03-29T23:34:23;8.20;99.90
5196;DHT22;2617;51.006;12.436;2024-03-29T23:39:27;8.20;99.90
5196;DHT22;2617;51.006;12.436;2024-03-29T23:44:30;8.10;99.90
5196;DHT22;2617;51.006;12.436;2024-03-29T23:49:33;8.00;99.90
5196;DHT22;2617;51.006;12.436;2024-03-29T23:54:35;8.00;99.90
5196;DHT22;2617;51.006;12.436;2024-03-29T23:59:37;8.00;99.90
